createdAt,value
2022-09-13T00:02:18.865Z,28.02
2022-09-13T00:04:49.526Z,27.86
2022-09-13T00:07:20.196Z,27.81
2022-09-13T00:09:49.618Z,27.82
2022-09-13T00:12:27.503Z,27.71
2022-09-13T00:14:57.213Z,27.95
2022-09-13T00:17:27.303Z,27.99
2022-09-13T00:19:58.903Z,27.92
2022-09-13T00:22:36.211Z,27.91
2022-09-13T00:25:08.177Z,27.66
2022-09-13T00:27:38.642Z,27.66
2022-09-13T00:30:10.942Z,27.85
2022-09-13T00:32:41.837Z,27.56
2022-09-13T00:35:13.513Z,27.72
2022-09-13T00:37:44.274Z,27.70
2022-09-13T00:40:16.331Z,27.54
2022-09-13T00:42:47.785Z,27.77
2022-09-13T00:45:20.917Z,27.95
2022-09-13T00:47:55.189Z,27.72
2022-09-13T00:50:31.338Z,27.84
2022-09-13T00:53:08.843Z,27.72
2022-09-13T00:55:44.174Z,27.80
2022-09-13T00:58:21.226Z,27.83
2022-09-13T01:00:54.805Z,27.82
2022-09-13T01:03:27.836Z,27.67
2022-09-13T01:06:06.268Z,27.48
2022-09-13T01:08:38.921Z,27.52
2022-09-13T01:11:17.203Z,27.58
2022-09-13T01:13:47.242Z,27.58
2022-09-13T01:16:23.679Z,27.51
2022-09-13T01:18:54.815Z,27.33
2022-09-13T01:22:17.952Z,27.27
2022-09-13T01:25:28.604Z,27.26
2022-09-13T01:28:19.995Z,27.17
2022-09-13T01:31:02.978Z,26.98
2022-09-13T01:33:53.930Z,27.03
2022-09-13T01:36:57.659Z,26.98
2022-09-13T01:39:46.165Z,26.96
2022-09-13T01:42:31.899Z,27.07
2022-09-13T01:45:16.330Z,27.09
2022-09-13T01:47:55.645Z,27.10
2022-09-13T01:50:38.966Z,26.93
2022-09-13T01:53:16.573Z,27.09
2022-09-13T01:55:53.922Z,27.08
2022-09-13T01:58:31.138Z,27.08
2022-09-13T02:01:09.806Z,27.08
2022-09-13T02:03:48.153Z,26.97
2022-09-13T02:06:27.939Z,27.11
2022-09-13T02:09:02.065Z,26.92
2022-09-13T02:11:32.893Z,27.12
2022-09-13T02:14:17.444Z,27.29
2022-09-13T02:16:56.391Z,26.91
2022-09-13T02:19:38.371Z,27.31
2022-09-13T02:22:14.799Z,27.53
2022-09-13T02:24:55.829Z,27.30
2022-09-13T02:27:30.143Z,27.42
2022-09-13T02:30:05.646Z,27.66
2022-09-13T02:32:40.909Z,27.67
2022-09-13T02:35:21.311Z,27.64
2022-09-13T02:38:00.494Z,27.83
2022-09-13T02:40:38.989Z,27.65
2022-09-13T02:43:18.510Z,27.66
2022-09-13T02:45:56.372Z,27.52
2022-09-13T02:48:39.383Z,27.41
2022-09-13T02:51:25.385Z,27.80
2022-09-13T02:54:08.061Z,27.65
2022-09-13T02:56:49.578Z,27.83
2022-09-13T02:59:23.836Z,27.67
2022-09-13T03:02:01.097Z,27.70
2022-09-13T03:04:32.285Z,27.67
2022-09-13T03:07:04.670Z,27.41
2022-09-13T03:09:35.236Z,27.36
2022-09-13T03:12:34.163Z,27.20
2022-09-13T03:15:20.676Z,27.30
2022-09-13T03:18:00.755Z,27.29
2022-09-13T03:20:42.788Z,27.05
2022-09-13T03:23:50.729Z,27.14
2022-09-13T03:26:37.253Z,26.95
2022-09-13T03:29:31.845Z,27.17
2022-09-13T03:32:20.381Z,27.18
2022-09-13T03:34:59.540Z,27.09
2022-09-13T03:37:39.466Z,27.13
2022-09-13T03:40:15.514Z,27.39
2022-09-13T03:42:50.972Z,27.01
2022-09-13T03:45:26.457Z,27.07
2022-09-13T03:47:59.630Z,26.89
2022-09-13T03:50:30.947Z,27.12
2022-09-13T03:53:16.881Z,27.01
2022-09-13T03:55:50.268Z,26.91
2022-09-13T03:58:22.116Z,26.67
2022-09-13T04:00:55.250Z,26.83
2022-09-13T04:03:25.618Z,26.76
2022-09-13T04:05:55.736Z,26.77
2022-09-13T04:08:24.630Z,26.74
2022-09-13T04:10:56.593Z,26.65
2022-09-13T04:13:27.710Z,26.64
2022-09-13T04:15:58.031Z,26.41
2022-09-13T04:18:26.842Z,26.49
2022-09-13T04:20:57.264Z,26.29
2022-09-13T04:23:29.328Z,26.18
2022-09-13T04:26:04.283Z,26.53
2022-09-13T04:28:33.769Z,26.24
2022-09-13T04:31:04.617Z,26.23
2022-09-13T04:33:34.538Z,26.20
2022-09-13T04:36:06.579Z,25.95
2022-09-13T04:38:37.453Z,25.84
2022-09-13T04:41:11.097Z,25.96
2022-09-13T04:43:39.527Z,26.12
2022-09-13T04:46:08.920Z,26.10
2022-09-13T04:48:38.087Z,26.08
2022-09-13T04:51:07.930Z,26.03
2022-09-13T04:53:37.890Z,25.95
2022-09-13T04:56:09.897Z,25.94
2022-09-13T04:58:39.198Z,25.87
2022-09-13T05:01:11.368Z,25.93
2022-09-13T05:03:41.202Z,25.90
2022-09-13T05:06:15.160Z,26.06
2022-09-13T05:08:43.886Z,25.80
2022-09-13T05:11:17.651Z,25.92
2022-09-13T05:13:53.105Z,25.86
2022-09-13T05:16:24.202Z,25.96
2022-09-13T05:18:55.892Z,26.14
2022-09-13T05:21:26.167Z,26.26
2022-09-13T05:23:57.076Z,26.30
2022-09-13T05:26:33.950Z,26.22
2022-09-13T05:29:12.252Z,26.37
2022-09-13T05:31:46.913Z,26.37
2022-09-13T05:34:19.765Z,26.44
2022-09-13T05:36:55.477Z,26.47
2022-09-13T05:39:48.349Z,26.89
2022-09-13T05:42:18.755Z,26.73
2022-09-13T05:44:47.650Z,26.98
2022-09-13T05:47:17.283Z,26.94
2022-09-13T05:50:08.892Z,27.00
2022-09-13T05:52:38.412Z,26.78
2022-09-13T05:55:12.286Z,26.73
2022-09-13T05:57:46.798Z,26.83
2022-09-13T06:00:18.836Z,27.02
2022-09-13T06:02:47.302Z,27.32
2022-09-13T06:05:16.752Z,27.30
2022-09-13T06:07:45.567Z,27.36
2022-09-13T06:10:16.715Z,26.61
2022-09-13T06:12:52.369Z,26.81
2022-09-13T06:15:20.910Z,27.01
2022-09-13T06:17:52.894Z,27.21
2022-09-13T06:20:21.794Z,27.39
2022-09-13T06:22:51.699Z,27.25
2022-09-13T06:25:23.484Z,27.45
2022-09-13T06:27:56.136Z,27.52
2022-09-13T06:30:25.270Z,27.40
2022-09-13T06:33:01.027Z,27.37
2022-09-13T06:35:30.986Z,27.71
2022-09-13T06:37:59.985Z,27.52
2022-09-13T06:40:29.033Z,27.57
2022-09-13T06:43:02.423Z,27.53
2022-09-13T06:45:31.463Z,27.70
2022-09-13T06:48:01.613Z,28.01
2022-09-13T06:50:30.183Z,27.61
2022-09-13T06:53:01.083Z,27.48
2022-09-13T06:55:35.927Z,27.73
2022-09-13T06:58:06.963Z,27.35
2022-09-13T07:00:36.034Z,28.07
2022-09-13T07:03:05.718Z,28.18
2022-09-13T07:05:34.416Z,28.50
2022-09-13T07:08:03.483Z,28.23
2022-09-13T07:10:32.435Z,28.39
2022-09-13T07:13:01.829Z,27.96
2022-09-13T07:15:34.936Z,28.38
2022-09-13T07:18:05.558Z,28.47
2022-09-13T07:20:39.070Z,27.88
2022-09-13T07:23:11.518Z,28.41
2022-09-13T07:25:42.892Z,28.70
2022-09-13T07:28:12.386Z,28.67
2022-09-13T07:30:46.610Z,29.04
2022-09-13T07:33:20.318Z,28.71
2022-09-13T07:35:55.827Z,29.10
2022-09-13T07:38:28.122Z,29.57
2022-09-13T07:40:59.569Z,29.32
2022-09-13T07:43:30.457Z,29.43
2022-09-13T07:46:02.134Z,29.28
2022-09-13T07:48:36.766Z,29.18
2022-09-13T07:51:08.931Z,29.81
2022-09-13T07:53:41.661Z,29.86
2022-09-13T07:56:14.617Z,29.23
2022-09-13T07:58:46.154Z,29.52
2022-09-13T08:01:22.846Z,29.38
2022-09-13T08:04:05.430Z,29.92
2022-09-13T08:06:37.757Z,30.25
2022-09-13T08:09:12.266Z,29.90
2022-09-13T08:11:45.313Z,29.69
2022-09-13T08:14:18.094Z,30.34
2022-09-13T08:16:49.638Z,30.32
2022-09-13T08:19:21.707Z,30.58
2022-09-13T08:21:52.247Z,30.06
2022-09-13T08:24:25.484Z,30.47
2022-09-13T08:26:57.250Z,30.67
2022-09-13T08:29:28.043Z,30.62
2022-09-13T08:32:00.176Z,30.43
2022-09-13T08:34:31.070Z,30.49
2022-09-13T08:37:00.871Z,31.24
2022-09-13T08:39:33.448Z,31.20
2022-09-13T08:42:29.685Z,30.31
2022-09-13T08:45:01.773Z,30.76
2022-09-13T08:47:42.642Z,31.28
2022-09-13T08:50:19.034Z,30.77
2022-09-13T08:53:17.030Z,30.11
2022-09-13T08:55:57.491Z,30.27
2022-09-13T08:58:51.824Z,30.15
2022-09-13T09:01:39.359Z,30.89
2022-09-13T09:04:34.691Z,30.10
2022-09-13T09:07:12.280Z,30.30
2022-09-13T09:09:48.095Z,31.03
2022-09-13T09:12:26.915Z,30.71
2022-09-13T09:15:05.067Z,31.22
2022-09-13T09:17:51.528Z,30.91
2022-09-13T09:20:33.303Z,30.47
2022-09-13T09:23:09.857Z,30.77
2022-09-13T09:25:50.117Z,31.21
2022-09-13T09:28:22.804Z,30.83
2022-09-13T09:31:03.615Z,30.56
2022-09-13T09:33:50.282Z,30.70
2022-09-13T09:36:35.195Z,31.45
2022-09-13T09:39:08.683Z,31.46
2022-09-13T09:41:41.891Z,31.41
2022-09-13T09:44:22.491Z,30.07
2022-09-13T09:47:07.242Z,30.24
2022-09-13T09:50:02.425Z,30.73
2022-09-13T09:52:40.210Z,30.24
2022-09-13T09:55:32.459Z,31.12
2022-09-13T09:58:06.735Z,31.54
2022-09-13T10:00:40.066Z,31.83
2022-09-13T10:03:19.706Z,31.30
2022-09-13T10:05:50.276Z,31.39
2022-09-13T10:08:32.650Z,30.91
2022-09-13T10:11:08.204Z,31.88
2022-09-13T10:13:40.581Z,31.98
2022-09-13T10:16:31.970Z,31.64
2022-09-13T10:19:34.361Z,30.67
2022-09-13T10:22:07.860Z,30.95
2022-09-13T10:24:39.477Z,31.18
2022-09-13T10:27:30.469Z,32.07
2022-09-13T10:30:05.462Z,31.08
2022-09-13T10:32:36.545Z,32.05
2022-09-13T10:35:20.653Z,31.94
2022-09-13T10:37:54.447Z,30.81
2022-09-13T10:40:34.331Z,31.81
2022-09-13T10:43:15.407Z,30.81
2022-09-13T10:45:50.207Z,31.26
2022-09-13T10:48:24.785Z,30.33
2022-09-13T10:51:06.402Z,30.69
2022-09-13T10:53:45.663Z,31.91
2022-09-13T10:56:28.965Z,32.10
2022-09-13T10:59:18.794Z,32.28
2022-09-13T11:02:14.876Z,31.07
2022-09-13T11:05:13.623Z,32.23
2022-09-13T11:08:17.498Z,32.01
2022-09-13T11:11:05.113Z,31.59
2022-09-13T11:14:07.337Z,31.94
2022-09-13T11:16:55.640Z,31.65
2022-09-13T11:20:17.254Z,31.94
2022-09-13T11:23:37.536Z,32.98
2022-09-13T11:26:28.404Z,31.53
2022-09-13T11:29:15.829Z,32.09
2022-09-13T11:31:56.549Z,33.31
2022-09-13T11:34:38.924Z,32.83
2022-09-13T11:37:47.257Z,33.36
2022-09-13T11:40:37.033Z,32.92
2022-09-13T11:43:24.412Z,32.79
2022-09-13T11:46:15.020Z,32.07
2022-09-13T11:49:28.183Z,32.59
2022-09-13T11:52:12.363Z,32.62
2022-09-13T11:55:11.175Z,32.67
2022-09-13T12:01:29.070Z,32.43
2022-09-13T12:05:04.705Z,33.08
2022-09-13T12:07:44.091Z,33.84
2022-09-13T12:10:22.402Z,33.97
2022-09-13T12:12:54.635Z,31.96
2022-09-13T12:15:36.502Z,32.86
2022-09-13T12:18:15.066Z,32.85
2022-09-13T12:20:53.904Z,32.55
2022-09-13T12:23:32.576Z,32.53
2022-09-13T12:26:06.464Z,32.63
2022-09-13T12:28:44.193Z,32.21
2022-09-13T12:31:19.891Z,32.03
2022-09-13T12:33:52.532Z,32.47
2022-09-13T12:37:03.769Z,33.09
2022-09-13T12:40:06.475Z,32.34
2022-09-13T12:43:07.056Z,32.41
2022-09-13T12:46:03.962Z,32.37
2022-09-13T12:49:16.705Z,32.59
2022-09-13T12:52:14.771Z,33.02
2022-09-13T12:55:45.418Z,32.76
2022-09-13T12:58:43.574Z,33.08
2022-09-13T13:01:16.253Z,32.90
2022-09-13T13:03:52.822Z,33.27
2022-09-13T13:06:36.669Z,34.32
2022-09-13T13:09:28.642Z,33.58
2022-09-13T13:12:01.637Z,34.18
2022-09-13T13:14:53.580Z,33.63
2022-09-13T13:17:49.761Z,33.28
2022-09-13T13:21:00.329Z,34.22
2022-09-13T13:23:31.958Z,33.94
2022-09-13T13:26:14.569Z,34.09
2022-09-13T13:29:18.479Z,34.49
2022-09-13T13:32:12.922Z,33.63
2022-09-13T13:35:19.147Z,33.79
2022-09-13T13:37:52.217Z,33.63
2022-09-13T13:40:33.298Z,34.36
2022-09-13T13:43:35.664Z,34.06
2022-09-13T13:46:32.139Z,34.54
2022-09-13T13:50:05.778Z,34.36
2022-09-13T13:52:41.282Z,33.79
2022-09-13T13:55:40.470Z,33.79
2022-09-13T13:58:48.479Z,34.50
2022-09-13T14:01:24.997Z,34.21
2022-09-13T14:04:49.653Z,34.43
2022-09-13T14:08:20.163Z,33.80
2022-09-13T14:11:00.954Z,32.97
2022-09-13T14:13:57.173Z,33.65
2022-09-13T14:16:44.372Z,33.83
2022-09-13T14:19:29.168Z,33.29
2022-09-13T14:22:17.178Z,34.16
2022-09-13T14:24:50.986Z,33.72
2022-09-13T14:27:23.547Z,33.24
2022-09-13T14:30:00.316Z,33.22
2022-09-13T14:32:39.811Z,32.89
2022-09-13T14:35:29.176Z,32.99
2022-09-13T14:38:14.610Z,32.70
2022-09-13T14:40:48.583Z,32.96
2022-09-13T14:43:18.427Z,33.00
2022-09-13T14:45:52.266Z,33.72
2022-09-13T14:48:29.224Z,32.85
2022-09-13T14:51:03.090Z,33.33
2022-09-13T14:53:37.989Z,32.55
2022-09-13T14:56:16.643Z,33.34
2022-09-13T14:58:49.377Z,32.74
2022-09-13T15:01:24.245Z,32.65
2022-09-13T15:03:53.700Z,32.97
2022-09-13T15:06:31.845Z,32.98
2022-09-13T15:09:18.532Z,33.34
2022-09-13T15:12:01.017Z,33.10
2022-09-13T15:14:35.651Z,33.62
2022-09-13T15:17:12.471Z,33.69
2022-09-13T15:19:44.840Z,33.73
2022-09-13T15:22:25.231Z,33.16
2022-09-13T15:24:59.414Z,33.70
2022-09-13T15:27:31.765Z,33.90
2022-09-13T15:30:08.507Z,32.61
2022-09-13T15:32:45.853Z,32.85
2022-09-13T15:35:20.171Z,32.64
2022-09-13T15:38:01.959Z,32.43
2022-09-13T15:40:42.660Z,32.85
2022-09-13T15:43:13.283Z,33.06
2022-09-13T15:45:45.138Z,32.66
2022-09-13T15:48:27.866Z,32.07
2022-09-13T15:51:10.232Z,31.77
2022-09-13T15:53:41.021Z,31.81
2022-09-13T15:56:14.623Z,31.31
2022-09-13T15:58:43.759Z,30.77
2022-09-13T16:01:16.137Z,30.71
2022-09-13T16:03:51.316Z,30.73
2022-09-13T16:06:24.834Z,30.68
2022-09-13T16:08:57.689Z,30.61
2022-09-13T16:11:26.284Z,30.50
2022-09-13T16:13:54.851Z,30.56
2022-09-13T16:16:23.694Z,30.53
2022-09-13T16:18:53.730Z,30.28
2022-09-13T16:21:22.886Z,29.71
2022-09-13T16:23:51.538Z,29.86
2022-09-13T16:26:20.338Z,29.57
2022-09-13T16:28:49.217Z,29.31
2022-09-13T16:31:21.954Z,29.36
2022-09-13T16:33:52.380Z,29.27
2022-09-13T16:36:23.479Z,29.36
2022-09-13T16:38:52.967Z,28.86
2022-09-13T16:41:22.541Z,28.68
2022-09-13T16:43:59.518Z,28.55
2022-09-13T16:46:30.920Z,28.91
2022-09-13T16:49:01.237Z,28.60
2022-09-13T16:51:32.121Z,28.97
2022-09-13T16:54:03.632Z,28.68
2022-09-13T16:56:33.125Z,28.44
2022-09-13T16:59:01.551Z,28.82
2022-09-13T17:01:34.816Z,28.61
2022-09-13T17:04:06.334Z,28.03
2022-09-13T17:06:36.465Z,28.14
2022-09-13T17:09:08.788Z,28.44
2022-09-13T17:11:42.791Z,28.09
2022-09-13T17:14:16.554Z,27.73
2022-09-13T17:16:49.831Z,27.92
2022-09-13T17:19:23.807Z,27.93
2022-09-13T17:21:57.619Z,28.01
2022-09-13T17:24:27.286Z,27.77
2022-09-13T17:26:57.531Z,27.82
2022-09-13T17:29:30.842Z,28.06
2022-09-13T17:32:00.029Z,27.68
2022-09-13T17:34:32.400Z,27.03
2022-09-13T17:37:07.105Z,27.74
2022-09-13T17:39:36.898Z,27.61
2022-09-13T17:42:06.526Z,27.43
2022-09-13T17:44:35.357Z,27.29
2022-09-13T17:47:04.390Z,27.28
2022-09-13T17:49:32.741Z,26.96
2022-09-13T17:52:03.902Z,27.29
2022-09-13T17:54:32.710Z,26.84
2022-09-13T17:57:04.593Z,26.25
2022-09-13T17:59:36.632Z,27.10
2022-09-13T18:02:10.568Z,26.74
2022-09-13T18:04:40.683Z,26.20
2022-09-13T18:07:14.225Z,26.38
2022-09-13T18:09:45.863Z,26.58
2022-09-13T18:12:20.555Z,26.65
2022-09-13T18:14:56.556Z,26.57
2022-09-13T18:17:27.753Z,26.55
2022-09-13T18:19:57.533Z,26.42
2022-09-13T18:22:28.448Z,25.78
2022-09-13T18:24:58.780Z,26.26
2022-09-13T18:27:34.720Z,26.07
2022-09-13T18:30:13.676Z,26.12
2022-09-13T18:32:50.545Z,26.41
2022-09-13T18:35:27.561Z,25.90
2022-09-13T18:38:15.261Z,25.55
2022-09-13T18:40:50.522Z,26.27
2022-09-13T18:43:22.197Z,25.98
2022-09-13T18:46:03.593Z,26.35
2022-09-13T18:48:38.419Z,26.01
2022-09-13T18:51:16.594Z,25.95
2022-09-13T18:54:03.806Z,25.96
2022-09-13T18:56:36.225Z,25.85
2022-09-13T18:59:13.912Z,26.11
2022-09-13T19:01:56.665Z,26.13
2022-09-13T19:04:52.326Z,25.87
2022-09-13T19:07:37.410Z,25.72
2022-09-13T19:10:29.058Z,26.08
2022-09-13T19:13:03.766Z,25.91
2022-09-13T19:15:51.349Z,25.84
2022-09-13T19:18:26.204Z,25.78
2022-09-13T19:21:05.801Z,25.74
2022-09-13T19:24:01.522Z,25.57
2022-09-13T19:26:57.136Z,25.44
2022-09-13T19:29:38.083Z,25.67
2022-09-13T19:32:13.555Z,25.78
2022-09-13T19:34:46.041Z,25.74
2022-09-13T19:37:27.197Z,25.63
2022-09-13T19:40:04.425Z,25.96
2022-09-13T19:42:45.381Z,25.90
2022-09-13T19:45:21.939Z,25.74
2022-09-13T19:48:37.018Z,25.57
2022-09-13T19:51:06.569Z,25.65
2022-09-13T19:53:56.960Z,25.91
2022-09-13T19:56:39.760Z,25.12
2022-09-13T19:59:21.219Z,25.53
2022-09-13T20:01:52.185Z,25.44
2022-09-13T20:04:23.691Z,25.26
2022-09-13T20:06:54.941Z,25.21
2022-09-13T20:09:26.501Z,25.39
2022-09-13T20:12:00.747Z,25.29
2022-09-13T20:14:35.519Z,25.18
2022-09-13T20:17:09.231Z,25.36
2022-09-13T20:19:47.605Z,25.35
2022-09-13T20:22:20.112Z,25.35
2022-09-13T20:24:52.324Z,25.49
2022-09-13T20:27:26.840Z,25.63
2022-09-13T20:30:08.203Z,25.44
2022-09-13T20:32:41.474Z,25.32
2022-09-13T20:35:14.926Z,25.30
2022-09-13T20:37:52.971Z,24.92
2022-09-13T20:40:27.533Z,25.21
2022-09-13T20:42:58.227Z,25.18
2022-09-13T20:45:30.111Z,25.23
2022-09-13T20:48:06.263Z,25.39
2022-09-13T20:50:42.229Z,25.32
2022-09-13T20:53:18.659Z,25.37
2022-09-13T20:55:47.855Z,25.19
2022-09-13T20:58:20.671Z,25.38
2022-09-13T21:00:52.964Z,25.13
2022-09-13T21:03:22.533Z,24.84
2022-09-13T21:05:52.875Z,25.13
2022-09-13T21:08:39.842Z,24.78
2022-09-13T21:11:10.895Z,25.00
2022-09-13T21:13:45.175Z,24.81
2022-09-13T21:16:22.656Z,24.85
2022-09-13T21:18:53.230Z,24.68
2022-09-13T21:21:25.594Z,24.59
2022-09-13T21:23:54.771Z,24.75
2022-09-13T21:26:27.162Z,24.72
2022-09-13T21:28:56.980Z,24.70
2022-09-13T21:31:30.871Z,24.51
2022-09-13T21:34:04.029Z,24.41
2022-09-13T21:36:37.818Z,24.58
2022-09-13T21:39:07.345Z,24.40
2022-09-13T21:41:38.009Z,24.56
2022-09-13T21:44:07.145Z,24.46
2022-09-13T21:46:40.163Z,24.08
2022-09-13T21:49:12.097Z,24.71
2022-09-13T21:51:45.559Z,24.54
2022-09-13T21:54:16.906Z,24.25
2022-09-13T21:56:53.503Z,24.51
2022-09-13T21:59:26.974Z,24.39
2022-09-13T22:01:58.323Z,24.51
2022-09-13T22:04:28.231Z,24.42
2022-09-13T22:06:59.052Z,24.54
2022-09-13T22:09:29.729Z,24.10
2022-09-13T22:11:59.093Z,24.14
2022-09-13T22:14:29.671Z,24.46
2022-09-13T22:17:00.865Z,24.30
2022-09-13T22:19:32.166Z,24.29
2022-09-13T22:22:05.023Z,24.14
2022-09-13T22:24:36.742Z,24.11
2022-09-13T22:27:08.506Z,24.23
2022-09-13T22:29:40.597Z,24.01
2022-09-13T22:32:10.496Z,23.71
2022-09-13T22:34:41.073Z,23.64
2022-09-13T22:37:10.870Z,24.00
2022-09-13T22:39:41.017Z,23.73
2022-09-13T22:42:12.317Z,23.42
2022-09-13T22:44:41.002Z,23.39
2022-09-13T22:47:12.150Z,23.08
2022-09-13T22:49:40.871Z,23.02
2022-09-13T22:52:12.765Z,22.92
2022-09-13T22:54:42.508Z,23.16
2022-09-13T22:57:11.064Z,23.44
2022-09-13T22:59:39.582Z,23.06
2022-09-13T23:02:10.746Z,22.91
2022-09-13T23:04:43.080Z,22.59
2022-09-13T23:07:13.846Z,22.63
2022-09-13T23:09:45.669Z,22.77
2022-09-13T23:12:17.877Z,22.88
2022-09-13T23:14:50.697Z,22.44
2022-09-13T23:17:21.763Z,22.82
2022-09-13T23:20:00.399Z,22.95
2022-09-13T23:22:31.629Z,22.39
2022-09-13T23:25:02.153Z,22.22
2022-09-13T23:27:32.754Z,22.54
2022-09-13T23:30:01.753Z,22.67
2022-09-13T23:32:30.876Z,22.44
2022-09-13T23:35:01.157Z,22.28
2022-09-13T23:37:31.279Z,22.77
2022-09-13T23:40:02.269Z,22.54
2022-09-13T23:42:34.423Z,22.47
2022-09-13T23:45:08.086Z,22.03
2022-09-13T23:47:36.841Z,22.61
2022-09-13T23:50:08.965Z,22.09
2022-09-13T23:52:37.554Z,22.47
2022-09-13T23:55:09.927Z,22.13
2022-09-13T23:57:39.428Z,22.29
